Time;durP1;ratioP1;P1;durP2;ratioP2;P2;SDS_P1;SDS_P2;PMS_P1;PMS_P2;Temp;Humidity;BMP_temperature;BMP_pressure;BME280_temperature;BME280_humidity;BME280_pressure;Samples;Min_cycle;Max_cycle;Signal;HPM_P1;HPM_P2
2021/12/21 00:01:20;;;;;;;20.75;11.70;;;-1.00;99.90;;;;;;5048954;28;20081;-81
2021/12/21 00:03:45;;;;;;;24.05;11.32;;;-1.10;99.90;;;;;;5043171;28;20031;-81
2021/12/21 00:06:11;;;;;;;24.60;11.00;;;-1.10;99.90;;;;;;5040230;28;20089;-81
2021/12/21 00:08:37;;;;;;;24.27;12.10;;;-1.10;99.90;;;;;;5040800;28;20057;-81
2021/12/21 00:11:03;;;;;;;18.25;11.75;;;-0.90;99.90;;;;;;5041881;28;20044;-81
2021/12/21 00:21:06;;;;;;;22.67;11.75;;;-0.70;99.90;;;;;;5041400;28;20029;-79
2021/12/21 00:23:47;;;;;;;26.27;12.23;;;-0.80;99.90;;;;;;5042019;28;20045;-82
2021/12/21 00:26:20;;;;;;;22.75;11.43;;;-0.80;99.90;;;;;;5037677;28;20014;-80
2021/12/21 00:28:59;;;;;;;21.90;11.05;;;-1.00;99.90;;;;;;5038993;28;20030;-81
2021/12/21 00:31:29;;;;;;;24.45;10.43;;;-1.00;99.90;;;;;;5029004;28;20021;-80
2021/12/21 00:33:58;;;;;;;18.30;13.07;;;-1.00;99.90;;;;;;5039137;28;20080;-83
2021/12/21 00:36:29;;;;;;;22.38;12.25;;;-1.00;99.90;;;;;;5040305;28;20031;-82
2021/12/21 00:39:03;;;;;;;20.92;11.38;;;-1.00;99.90;;;;;;5047811;28;20556;-82
2021/12/21 00:41:29;;;;;;;21.48;11.70;;;-1.10;99.90;;;;;;5036970;28;20036;-80
2021/12/21 00:43:55;;;;;;;14.98;9.60;;;-1.00;99.90;;;;;;5046669;28;20017;-81
2021/12/21 00:46:20;;;;;;;21.23;11.30;;;-1.00;99.90;;;;;;5039000;28;20068;-80
2021/12/21 00:48:52;;;;;;;19.58;11.05;;;-1.10;99.90;;;;;;5039691;28;20043;-80
2021/12/21 00:51:19;;;;;;;15.15;10.15;;;-1.20;99.90;;;;;;5039191;28;20025;-81
2021/12/21 00:53:45;;;;;;;18.92;11.77;;;-1.20;99.90;;;;;;5042116;28;20025;-79
2021/12/21 00:56:10;;;;;;;19.42;10.13;;;-1.20;99.90;;;;;;5041931;28;20069;-80
2021/12/21 00:58:36;;;;;;;20.33;9.85;;;-1.20;99.90;;;;;;5041427;28;20037;-81
2021/12/21 01:01:05;;;;;;;17.08;10.73;;;-1.20;99.90;;;;;;5042797;28;20025;-81
2021/12/21 01:03:32;;;;;;;23.45;10.23;;;-1.30;99.90;;;;;;5037952;28;20021;-81
2021/12/21 01:06:12;;;;;;;19.05;9.35;;;-1.30;99.90;;;;;;5040929;28;20037;-81
2021/12/21 01:09:06;;;;;;;20.25;10.07;;;-1.40;99.90;;;;;;5036286;28;20025;-80
2021/12/21 01:11:40;;;;;;;20.67;11.48;;;-1.40;99.90;;;;;;5042043;28;20065;-81
2021/12/21 01:17:11;;;;;;;16.02;10.35;;;-1.50;99.90;;;;;;5034907;28;20532;-78
2021/12/21 01:19:42;;;;;;;18.40;12.13;;;-1.50;99.90;;;;;;5027272;28;20025;-80
2021/12/21 01:24:55;;;;;;;17.10;9.77;;;-1.50;99.90;;;;;;5035115;28;20028;-79
2021/12/21 01:27:38;;;;;;;21.23;10.88;;;-1.50;99.90;;;;;;5035390;28;20021;-79
2021/12/21 01:32:54;;;;;;;21.08;9.75;;;-1.50;99.90;;;;;;5039841;28;20053;-80
2021/12/21 01:35:32;;;;;;;17.58;10.18;;;-1.40;99.90;;;;;;5034219;28;20492;-78
2021/12/21 01:50:54;;;;;;;21.17;8.10;;;-1.50;99.90;;;;;;5032275;28;20028;-79
2021/12/21 01:53:19;;;;;;;15.80;8.45;;;-1.60;99.90;;;;;;5033068;28;20017;-78
2021/12/21 01:55:46;;;;;;;17.20;8.90;;;-1.60;99.90;;;;;;5031451;28;20108;-79
2021/12/21 01:58:12;;;;;;;16.80;9.77;;;-1.70;99.90;;;;;;5034687;28;20041;-80
2021/12/21 02:00:39;;;;;;;22.55;9.23;;;-1.70;99.90;;;;;;5039641;28;20017;-79
2021/12/21 02:03:05;;;;;;;17.58;9.07;;;-1.70;99.90;;;;;;5039662;28;20048;-79
2021/12/21 02:05:31;;;;;;;17.25;10.18;;;-1.70;99.90;;;;;;5032978;28;20028;-79
2021/12/21 02:07:57;;;;;;;15.05;8.48;;;-1.70;99.90;;;;;;5030860;28;20029;-80
2021/12/21 02:10:22;;;;;;;14.38;8.70;;;-1.80;99.90;;;;;;5038845;28;20072;-80
2021/12/21 02:12:48;;;;;;;15.30;8.80;;;-1.90;99.90;;;;;;5028493;28;20025;-77
2021/12/21 02:15:14;;;;;;;18.77;9.18;;;-1.80;99.90;;;;;;5032155;28;20137;-78
2021/12/21 02:23:19;;;;;;;12.80;8.95;;;-1.80;99.90;;;;;;5013715;28;20041;-78
2021/12/21 02:28:37;;;;;;;18.23;8.45;;;-1.80;99.90;;;;;;5042568;28;20160;-78
2021/12/21 02:31:03;;;;;;;15.32;7.88;;;-1.80;99.90;;;;;;5034668;28;20025;-79
2021/12/21 02:33:29;;;;;;;18.25;9.25;;;-1.90;99.90;;;;;;5033773;28;20057;-79
2021/12/21 02:35:57;;;;;;;17.42;8.30;;;-1.80;99.90;;;;;;5032273;28;20049;-79
2021/12/21 02:38:23;;;;;;;13.52;8.88;;;-1.80;99.90;;;;;;5033260;28;20389;-79
2021/12/21 02:40:49;;;;;;;16.70;7.80;;;-1.80;99.90;;;;;;5029691;28;20025;-77
2021/12/21 02:43:14;;;;;;;13.77;7.93;;;-1.80;99.90;;;;;;5033425;28;20022;-78
2021/12/21 02:45:41;;;;;;;15.15;8.68;;;-1.80;99.90;;;;;;5033879;28;20021;-79
2021/12/21 02:48:08;;;;;;;16.48;8.93;;;-1.90;99.90;;;;;;5034339;28;20482;-80
2021/12/21 02:50:36;;;;;;;20.15;9.43;;;-1.80;99.90;;;;;;5032573;28;20025;-80
2021/12/21 02:53:02;;;;;;;14.60;9.02;;;-1.90;99.90;;;;;;5033983;28;20018;-80
2021/12/21 02:55:28;;;;;;;12.65;8.73;;;-1.90;99.90;;;;;;5033917;28;20040;-79
2021/12/21 02:57:57;;;;;;;11.93;8.48;;;-1.90;99.90;;;;;;5043269;28;20033;-79
2021/12/21 03:00:25;;;;;;;14.10;9.02;;;-1.90;99.90;;;;;;5056766;28;20017;-78
2021/12/21 03:02:50;;;;;;;14.73;7.55;;;-1.90;99.90;;;;;;5053556;28;20105;-78
2021/12/21 03:05:16;;;;;;;14.40;8.05;;;-1.90;99.90;;;;;;5072556;28;20026;-79
2021/12/21 03:08:19;;;;;;;13.90;8.25;;;-1.90;99.90;;;;;;5063012;28;20038;-78
2021/12/21 03:10:34;;;;;;;16.80;9.88;;;-1.90;99.90;;;;;;5032049;28;20045;-80
2021/12/21 03:15:43;;;;;;;22.42;9.13;;;-1.90;99.90;;;;;;5028689;28;20024;-79
2021/12/21 03:18:09;;;;;;;15.52;8.27;;;-1.90;99.90;;;;;;5033446;28;20033;-79
2021/12/21 03:20:35;;;;;;;13.50;8.20;;;-2.00;99.90;;;;;;5033302;28;20082;-79
2021/12/21 03:23:00;;;;;;;12.27;7.95;;;-2.00;99.90;;;;;;5032143;28;20123;-79
2021/12/21 03:25:26;;;;;;;12.90;8.52;;;-2.00;99.90;;;;;;5031545;28;20044;-79
2021/12/21 03:27:51;;;;;;;13.23;8.27;;;-2.00;99.90;;;;;;5029565;28;20017;-78
2021/12/21 03:30:17;;;;;;;15.15;7.18;;;-2.00;99.90;;;;;;5034807;28;20034;-79
2021/12/21 03:32:42;;;;;;;12.75;8.52;;;-2.00;99.90;;;;;;5032165;28;20029;-78
2021/12/21 03:35:09;;;;;;;15.77;7.55;;;-1.90;99.90;;;;;;5030408;28;20033;-79
2021/12/21 03:37:35;;;;;;;12.20;7.47;;;-1.90;99.90;;;;;;5030363;28;20478;-79
2021/12/21 03:40:03;;;;;;;17.45;8.60;;;-1.90;99.90;;;;;;5032072;28;20093;-79
2021/12/21 03:42:29;;;;;;;11.50;7.22;;;-1.90;99.90;;;;;;5030014;28;20021;-79
2021/12/21 03:44:55;;;;;;;14.25;8.18;;;-2.00;99.90;;;;;;5032249;28;20013;-79
2021/12/21 03:47:22;;;;;;;11.70;7.13;;;-2.00;99.90;;;;;;5032587;28;20029;-78
2021/12/21 03:49:55;;;;;;;12.63;7.32;;;-2.10;99.90;;;;;;5032175;28;20022;-79
2021/12/21 03:52:23;;;;;;;11.65;7.85;;;-2.20;99.90;;;;;;5032431;28;20358;-79
2021/12/21 03:54:52;;;;;;;13.40;8.02;;;-2.20;99.90;;;;;;5033621;28;20105;-79
2021/12/21 03:57:18;;;;;;;23.02;9.35;;;-2.20;99.90;;;;;;5034709;28;20124;-78
2021/12/21 03:59:45;;;;;;;17.92;8.55;;;-2.20;99.90;;;;;;5035033;28;20045;-78
2021/12/21 04:02:12;;;;;;;17.58;8.32;;;-2.10;99.90;;;;;;5035145;28;20029;-79
2021/12/21 04:04:43;;;;;;;14.60;8.63;;;-2.20;99.90;;;;;;5031415;28;20033;-79
2021/12/21 04:07:08;;;;;;;18.55;8.85;;;-2.20;99.90;;;;;;5034365;28;20029;-77
2021/12/21 04:09:34;;;;;;;15.63;8.90;;;-2.20;99.90;;;;;;5037225;28;20025;-80
2021/12/21 04:12:00;;;;;;;11.65;8.05;;;-2.10;99.90;;;;;;5036889;28;20029;-79
2021/12/21 04:14:31;;;;;;;18.02;7.60;;;-2.20;99.90;;;;;;5032896;28;20104;-78
2021/12/21 04:16:57;;;;;;;19.67;7.47;;;-2.20;99.90;;;;;;5035981;28;20037;-78
2021/12/21 04:19:23;;;;;;;11.30;7.22;;;-2.20;99.90;;;;;;5035482;28;20379;-78
2021/12/21 04:21:50;;;;;;;14.00;7.13;;;-2.20;99.90;;;;;;5033268;28;20503;-78
2021/12/21 04:24:16;;;;;;;11.80;7.35;;;-2.20;99.90;;;;;;5035643;28;20081;-78
2021/12/21 04:26:41;;;;;;;12.77;8.23;;;-2.20;99.90;;;;;;5034371;28;20045;-79
2021/12/21 04:29:07;;;;;;;15.35;7.97;;;-2.30;99.90;;;;;;5036203;28;20404;-79
2021/12/21 04:31:33;;;;;;;14.93;8.40;;;-2.20;99.90;;;;;;5036382;28;20033;-80
2021/12/21 04:33:59;;;;;;;17.38;10.70;;;-2.20;99.90;;;;;;5038491;28;20022;-78
2021/12/21 04:36:25;;;;;;;19.55;7.93;;;-2.10;99.90;;;;;;5036035;28;20025;-79
2021/12/21 04:38:52;;;;;;;15.52;7.95;;;-2.10;99.90;;;;;;5035568;28;20025;-78
2021/12/21 04:41:23;;;;;;;14.45;8.20;;;-2.20;99.90;;;;;;5029808;28;20037;-79
2021/12/21 04:43:51;;;;;;;13.57;8.70;;;-2.20;99.90;;;;;;5045625;28;20021;-79
2021/12/21 04:46:16;;;;;;;10.05;7.65;;;-2.20;99.90;;;;;;5046540;28;20033;-78
2021/12/21 04:48:42;;;;;;;18.02;8.50;;;-2.00;99.90;;;;;;5028291;28;20024;-77
2021/12/21 04:51:08;;;;;;;10.57;7.50;;;-2.00;99.90;;;;;;5031424;28;20088;-77
2021/12/21 04:53:33;;;;;;;14.95;8.32;;;-1.90;99.90;;;;;;5034386;28;20051;-78
2021/12/21 04:56:00;;;;;;;15.18;8.57;;;-1.90;99.90;;;;;;5030832;28;20026;-78
2021/12/21 04:58:25;;;;;;;15.43;9.85;;;-2.10;99.90;;;;;;5034863;28;20087;-77
2021/12/21 05:00:51;;;;;;;18.02;8.48;;;-2.10;99.90;;;;;;5029550;28;20018;-79
2021/12/21 05:03:17;;;;;;;14.85;8.80;;;-2.20;99.90;;;;;;5033504;28;20029;-79
2021/12/21 05:05:43;;;;;;;13.00;7.95;;;-2.20;99.90;;;;;;5047777;28;20027;-79
2021/12/21 05:08:19;;;;;;;10.13;8.98;;;-2.20;99.90;;;;;;5053354;28;20026;-79
2021/12/21 05:10:51;;;;;;;11.63;9.02;;;-2.20;99.90;;;;;;5051873;28;20021;-79
2021/12/21 05:13:19;;;;;;;12.80;9.38;;;-2.20;99.90;;;;;;5047434;28;20041;-78
2021/12/21 05:15:45;;;;;;;13.00;7.82;;;-2.20;99.90;;;;;;5037901;28;20022;-78
2021/12/21 05:18:12;;;;;;;16.52;8.82;;;-2.20;99.90;;;;;;5034655;28;20052;-79
2021/12/21 05:20:38;;;;;;;17.10;9.10;;;-2.20;99.90;;;;;;5035324;28;20018;-79
2021/12/21 05:23:04;;;;;;;15.57;10.15;;;-2.20;99.90;;;;;;5031861;28;20025;-78
2021/12/21 05:25:30;;;;;;;15.50;9.15;;;-2.30;99.90;;;;;;5035586;28;20022;-78
2021/12/21 05:27:55;;;;;;;17.33;8.63;;;-2.30;99.90;;;;;;5035814;28;20113;-79
2021/12/21 05:30:22;;;;;;;16.25;9.00;;;-2.40;99.90;;;;;;5034847;28;20040;-78
2021/12/21 05:32:49;;;;;;;13.45;8.85;;;-2.40;99.90;;;;;;5033481;28;20430;-79
2021/12/21 05:35:15;;;;;;;17.85;9.02;;;-2.40;99.90;;;;;;5034411;28;20187;-79
2021/12/21 05:37:41;;;;;;;15.55;8.25;;;-2.50;99.90;;;;;;5029586;28;20026;-79
2021/12/21 05:40:11;;;;;;;14.65;8.98;;;-2.50;99.90;;;;;;5033060;28;20171;-79
2021/12/21 05:42:37;;;;;;;19.30;9.93;;;-2.50;99.90;;;;;;5034082;28;20383;-79
2021/12/21 05:45:05;;;;;;;16.02;8.70;;;-2.40;99.90;;;;;;5021563;28;20089;-78
2021/12/21 05:47:30;;;;;;;20.52;9.18;;;-2.40;99.90;;;;;;5034052;28;20624;-78
2021/12/21 05:49:56;;;;;;;19.70;9.50;;;-2.40;99.90;;;;;;5033891;28;20091;-79
2021/12/21 05:52:21;;;;;;;13.75;8.13;;;-2.50;99.90;;;;;;5034572;28;20028;-82
2021/12/21 05:54:49;;;;;;;19.48;10.13;;;-2.50;99.90;;;;;;5033624;28;20025;-79
2021/12/21 05:57:15;;;;;;;18.17;8.80;;;-2.50;99.90;;;;;;5032517;28;20060;-80
2021/12/21 05:59:40;;;;;;;17.83;9.20;;;-2.60;99.90;;;;;;5033183;28;20037;-78
2021/12/21 06:02:06;;;;;;;15.65;8.35;;;-2.50;99.90;;;;;;5035308;28;20046;-79
2021/12/21 06:04:32;;;;;;;16.77;8.77;;;-2.50;99.90;;;;;;5033857;28;20028;-78
2021/12/21 06:06:57;;;;;;;17.88;8.75;;;-2.50;99.90;;;;;;5033330;28;20027;-79
2021/12/21 06:09:23;;;;;;;14.38;9.02;;;-2.40;99.90;;;;;;5033845;28;20021;-78
2021/12/21 06:12:12;;;;;;;15.18;8.63;;;-2.40;99.90;;;;;;5033598;28;20484;-79
2021/12/21 06:22:45;;;;;;;16.30;8.77;;;-2.40;99.90;;;;;;5033701;28;20048;-79
2021/12/21 06:22:46;;;;;;;12.27;8.02;;;-2.50;99.90;;;;;;5041598;28;20074;-80
2021/12/21 06:25:34;;;;;;;19.27;9.25;;;-2.50;99.90;;;;;;5040855;28;20033;-79
2021/12/21 06:28:00;;;;;;;18.00;8.43;;;-2.60;99.90;;;;;;5031817;28;20504;-80
2021/12/21 06:30:26;;;;;;;16.67;9.75;;;-2.60;99.90;;;;;;5032839;28;20009;-79
2021/12/21 06:32:51;;;;;;;20.38;8.77;;;-2.60;99.90;;;;;;5027336;28;20014;-79
2021/12/21 06:35:18;;;;;;;14.30;8.73;;;-2.60;99.90;;;;;;5033798;28;20482;-79
2021/12/21 06:37:43;;;;;;;15.32;8.40;;;-2.50;99.90;;;;;;5032518;28;20070;-78
2021/12/21 06:40:10;;;;;;;13.43;8.55;;;-2.50;99.90;;;;;;5038125;28;20017;-79
2021/12/21 06:42:36;;;;;;;18.77;9.73;;;-2.50;99.90;;;;;;5035124;28;20377;-79
2021/12/21 06:45:11;;;;;;;20.67;9.32;;;-2.50;99.90;;;;;;5032719;28;20021;-79
2021/12/21 06:53:05;;;;;;;18.88;9.98;;;-2.50;99.90;;;;;;5029346;28;20045;-80
2021/12/21 06:55:30;;;;;;;14.73;10.10;;;-2.60;99.90;;;;;;5041275;28;20088;-78
2021/12/21 06:57:56;;;;;;;21.05;9.43;;;-2.40;99.90;;;;;;5047122;28;20057;-77
2021/12/21 07:00:21;;;;;;;20.27;8.63;;;-2.50;99.90;;;;;;5036916;28;20026;-79
2021/12/21 07:02:47;;;;;;;17.58;10.23;;;-2.50;99.90;;;;;;5035762;28;20078;-79
2021/12/21 07:05:13;;;;;;;14.10;7.80;;;-2.40;99.90;;;;;;5031095;28;20093;-80
2021/12/21 07:07:39;;;;;;;19.92;8.95;;;-2.30;99.90;;;;;;5035076;28;20014;-78
2021/12/21 07:10:09;;;;;;;15.30;9.63;;;-2.40;99.90;;;;;;5033029;28;20037;-78
2021/12/21 07:18:07;;;;;;;19.10;8.30;;;-2.60;99.90;;;;;;5036551;28;20089;-77
2021/12/21 07:20:33;;;;;;;16.30;8.73;;;-2.60;99.90;;;;;;5033097;28;20101;-80
2021/12/21 07:22:59;;;;;;;19.30;9.93;;;-2.60;99.90;;;;;;5030560;28;20104;-78
2021/12/21 07:25:25;;;;;;;15.77;8.68;;;-2.60;99.90;;;;;;5032347;28;20029;-79
2021/12/21 07:27:52;;;;;;;16.67;9.10;;;-2.50;99.90;;;;;;5033698;28;20021;-78
2021/12/21 07:30:18;;;;;;;18.27;9.38;;;-2.50;99.90;;;;;;5036121;28;20482;-80
2021/12/21 07:32:43;;;;;;;17.15;10.00;;;-2.40;99.90;;;;;;5035304;28;20100;-79
2021/12/21 07:35:09;;;;;;;21.80;10.38;;;-2.40;99.90;;;;;;5037265;28;20528;-80
2021/12/21 07:37:35;;;;;;;22.45;10.60;;;-2.40;99.90;;;;;;5036479;28;20045;-78
2021/12/21 07:40:06;;;;;;;22.50;10.90;;;-2.40;99.90;;;;;;5034857;28;20026;-78
2021/12/21 07:42:31;;;;;;;14.73;8.10;;;-2.40;99.90;;;;;;5035698;28;20018;-78
2021/12/21 07:44:58;;;;;;;17.75;9.10;;;-2.40;99.90;;;;;;5031219;28;20022;-79
2021/12/21 07:47:24;;;;;;;20.73;9.50;;;-2.50;99.90;;;;;;5034683;28;20440;-78
2021/12/21 07:49:50;;;;;;;16.20;8.77;;;-2.40;99.90;;;;;;5034396;28;20032;-78
2021/12/21 07:52:16;;;;;;;16.42;9.52;;;-2.40;99.90;;;;;;5035409;28;20108;-78
2021/12/21 07:54:42;;;;;;;17.42;9.13;;;-2.30;99.90;;;;;;5035394;28;20025;-80
2021/12/21 07:57:08;;;;;;;17.55;9.18;;;-2.30;99.90;;;;;;5038256;28;20040;-79
2021/12/21 07:59:35;;;;;;;18.00;10.32;;;-2.20;99.90;;;;;;5064137;28;20056;-78
2021/12/21 08:02:01;;;;;;;18.17;9.50;;;-2.20;99.90;;;;;;5046657;28;20029;-79
2021/12/21 08:04:28;;;;;;;15.40;9.25;;;-2.20;99.90;;;;;;5039173;28;20124;-79
2021/12/21 08:06:59;;;;;;;20.13;9.73;;;-2.10;99.90;;;;;;5036445;28;20145;-80
2021/12/21 08:09:32;;;;;;;12.93;8.23;;;-2.10;99.90;;;;;;5033395;28;20050;-79
2021/12/21 08:12:15;;;;;;;18.17;8.63;;;-2.10;99.90;;;;;;5053780;28;20036;-78
2021/12/21 08:14:46;;;;;;;14.63;8.90;;;-2.00;99.90;;;;;;5051505;28;20029;-79
2021/12/21 08:17:12;;;;;;;;;;;-1.90;99.90;;;;;;5054809;28;20014;-80
2021/12/21 08:19:37;;;;;;;12.95;8.60;;;-1.90;99.90;;;;;;5051889;28;19909;-80
2021/12/21 08:22:03;;;;;;;18.08;7.47;;;-1.80;99.90;;;;;;5041273;28;20038;-79
2021/12/21 08:24:33;;;;;;;15.35;8.05;;;-1.70;99.90;;;;;;5037516;28;20028;-79
2021/12/21 08:27:00;;;;;;;13.25;7.60;;;-1.60;99.90;;;;;;5033144;28;20017;-79
2021/12/21 08:29:27;;;;;;;19.70;9.52;;;-1.40;99.90;;;;;;5036233;28;20056;-80
2021/12/21 08:31:52;;;;;;;16.13;7.53;;;-1.30;99.90;;;;;;5036534;28;20033;-80
2021/12/21 08:34:18;;;;;;;14.73;9.02;;;-1.30;99.90;;;;;;5036270;28;20042;-79
2021/12/21 08:36:44;;;;;;;18.42;8.32;;;-1.20;99.90;;;;;;5033760;28;20508;-79
2021/12/21 08:39:10;;;;;;;20.77;9.07;;;-1.10;99.90;;;;;;5035319;28;20091;-80
2021/12/21 08:41:41;;;;;;;14.43;8.73;;;-1.10;99.90;;;;;;5033937;28;20009;-79
2021/12/21 08:44:09;;;;;;;14.43;9.32;;;-1.10;99.90;;;;;;5036105;28;20017;-80
2021/12/21 08:46:35;;;;;;;15.73;8.63;;;-1.10;99.90;;;;;;5035620;28;20039;-78
2021/12/21 08:49:00;;;;;;;12.43;8.43;;;-1.10;99.90;;;;;;5036003;28;20084;-80
2021/12/21 08:51:26;;;;;;;18.13;10.38;;;-1.20;99.90;;;;;;5037289;28;20489;-79
2021/12/21 08:53:51;;;;;;;12.75;8.52;;;-1.10;99.90;;;;;;5037058;28;20018;-79
2021/12/21 08:56:17;;;;;;;15.57;10.50;;;-1.00;99.90;;;;;;5063150;28;20064;-78
2021/12/21 08:58:43;;;;;;;14.13;9.00;;;-0.90;99.90;;;;;;5067328;28;20065;-79
2021/12/21 09:01:08;;;;;;;15.63;8.73;;;-1.10;99.90;;;;;;5066390;28;20056;-79
2021/12/21 09:03:34;;;;;;;21.90;9.43;;;-1.00;99.90;;;;;;5056918;28;20006;-81
2021/12/21 09:06:00;;;;;;;14.52;9.30;;;-0.90;99.90;;;;;;5040151;28;20497;-80
2021/12/21 09:08:27;;;;;;;14.27;9.43;;;-0.90;99.90;;;;;;5034339;28;20028;-79
2021/12/21 09:10:52;;;;;;;16.10;9.65;;;-0.90;99.90;;;;;;5039891;28;20088;-81
2021/12/21 09:13:18;;;;;;;16.38;9.07;;;-0.70;99.90;;;;;;5035766;28;20053;-79
2021/12/21 09:15:45;;;;;;;14.07;8.82;;;-0.80;99.90;;;;;;5034408;28;20017;-79
2021/12/21 09:18:10;;;;;;;16.27;10.60;;;-0.60;99.90;;;;;;5034396;28;20521;-79
2021/12/21 09:20:37;;;;;;;12.65;8.55;;;-0.50;99.90;;;;;;5034113;28;20033;-80
2021/12/21 09:23:03;;;;;;;11.60;9.13;;;-0.40;99.90;;;;;;5043192;28;20025;-80
2021/12/21 09:25:29;;;;;;;10.90;8.30;;;-0.30;99.90;;;;;;5027866;28;20489;-78
2021/12/21 09:27:56;;;;;;;10.73;8.43;;;-0.30;99.90;;;;;;5039371;28;20119;-80
2021/12/21 09:30:23;;;;;;;13.50;8.07;;;-0.20;99.90;;;;;;5034101;28;20075;-80
2021/12/21 09:32:51;;;;;;;17.80;8.25;;;-0.20;99.90;;;;;;5037708;28;20010;-79
2021/12/21 09:35:17;;;;;;;17.30;9.60;;;-0.20;99.90;;;;;;5037696;28;20029;-81
2021/12/21 09:37:44;;;;;;;14.10;9.38;;;-0.20;99.90;;;;;;5038994;28;20029;-80
2021/12/21 09:40:14;;;;;;;14.52;7.85;;;-0.20;99.90;;;;;;5036104;28;20038;-79
2021/12/21 09:42:40;;;;;;;11.43;8.43;;;-0.10;99.90;;;;;;5038106;28;20073;-80
2021/12/21 09:45:06;;;;;;;13.57;8.27;;;-0.10;99.90;;;;;;5038021;28;20100;-79
2021/12/21 09:47:33;;;;;;;13.15;8.38;;;0.00;99.90;;;;;;5039582;28;20022;-81
2021/12/21 09:49:59;;;;;;;13.30;8.80;;;0.10;99.90;;;;;;5050516;28;20009;-78
2021/12/21 09:52:30;;;;;;;22.02;9.10;;;0.10;99.90;;;;;;5056643;28;20021;-80
2021/12/21 09:54:58;;;;;;;12.65;8.93;;;0.10;99.90;;;;;;5037861;28;20032;-78
2021/12/21 09:57:23;;;;;;;12.07;8.85;;;0.10;99.90;;;;;;5036075;28;20017;-79
2021/12/21 09:59:50;;;;;;;12.25;8.40;;;0.20;99.90;;;;;;5035263;28;20028;-81
2021/12/21 10:02:19;;;;;;;19.27;9.23;;;0.40;99.90;;;;;;5035660;28;20522;-80
2021/12/21 10:04:48;;;;;;;11.48;7.78;;;0.40;99.90;;;;;;5036641;28;20358;-82
2021/12/21 10:07:14;;;;;;;17.33;10.73;;;0.30;99.90;;;;;;5033977;28;20025;-79
2021/12/21 10:09:43;;;;;;;13.30;7.95;;;0.30;99.90;;;;;;5029724;28;20438;-80
2021/12/21 10:12:13;;;;;;;13.93;8.02;;;0.50;99.90;;;;;;5032913;28;20022;-78
2021/12/21 10:14:39;;;;;;;12.88;8.80;;;0.70;99.90;;;;;;5033062;28;20035;-79
2021/12/21 10:17:07;;;;;;;11.32;7.38;;;0.80;99.90;;;;;;5031980;28;20130;-79
2021/12/21 10:19:35;;;;;;;16.70;8.65;;;0.90;99.90;;;;;;5032561;28;20481;-78
2021/12/21 10:22:27;;;;;;;13.63;7.90;;;0.90;99.90;;;;;;5030483;28;20040;-80
2021/12/21 10:24:53;;;;;;;16.17;8.85;;;0.90;99.90;;;;;;5031220;28;20057;-80
2021/12/21 10:27:22;;;;;;;14.98;8.77;;;1.00;99.90;;;;;;5033528;28;20029;-80
2021/12/21 10:30:01;;;;;;;11.10;8.50;;;1.10;99.90;;;;;;5035815;28;21134;-80
2021/12/21 10:32:30;;;;;;;16.88;8.95;;;1.10;99.90;;;;;;5038152;28;20017;-81
2021/12/21 10:35:00;;;;;;;16.10;8.20;;;1.10;99.90;;;;;;5035025;28;20029;-80
2021/12/21 10:37:36;;;;;;;;;;;0.90;99.90;;;;;;5036238;28;20018;-79
2021/12/21 10:40:27;;;;;;;12.20;8.40;;;0.90;99.90;;;;;;5034915;28;19928;-79
2021/12/21 10:42:57;;;;;;;;;;;1.00;99.90;;;;;;5034107;28;20022;-79
2021/12/21 10:45:28;;;;;;;12.03;7.63;;;1.00;99.90;;;;;;5036380;28;19912;-79
2021/12/21 10:47:54;;;;;;;12.88;7.38;;;1.20;99.90;;;;;;5034609;28;20108;-80
2021/12/21 10:50:21;;;;;;;13.52;8.50;;;1.30;99.90;;;;;;5048469;28;20022;-80
2021/12/21 10:52:51;;;;;;;15.20;8.60;;;1.40;99.90;;;;;;5050903;28;20009;-80
2021/12/21 10:55:22;;;;;;;15.02;7.97;;;1.50;99.90;;;;;;5039338;28;20026;-80
2021/12/21 10:57:48;;;;;;;14.02;6.75;;;1.60;99.90;;;;;;5033452;28;20017;-80
2021/12/21 11:00:16;;;;;;;12.43;7.07;;;1.50;99.90;;;;;;5032876;28;20498;-80
2021/12/21 11:02:43;;;;;;;11.15;7.35;;;1.60;99.90;;;;;;5037105;28;20021;-80
2021/12/21 11:05:16;;;;;;;9.73;7.15;;;1.70;99.90;;;;;;5038279;28;20108;-82
2021/12/21 11:10:27;;;;;;;8.13;5.53;;;1.80;99.90;;;;;;5045083;28;20108;-81
2021/12/21 11:12:56;;;;;;;6.22;5.57;;;2.00;99.90;;;;;;5043328;28;20017;-81
2021/12/21 11:15:31;;;;;;;11.65;7.53;;;2.10;99.90;;;;;;5055807;28;20026;-81
2021/12/21 11:17:58;;;;;;;8.27;6.45;;;2.20;99.90;;;;;;5058818;28;20029;-80
2021/12/21 11:20:24;;;;;;;10.15;5.95;;;2.20;99.90;;;;;;5059951;28;20029;-81
2021/12/21 11:22:51;;;;;;;10.98;6.57;;;2.20;99.90;;;;;;5043176;28;20037;-81
2021/12/21 11:25:17;;;;;;;13.48;6.18;;;2.40;99.90;;;;;;5039058;28;20021;-82
2021/12/21 11:27:43;;;;;;;8.65;7.10;;;2.40;99.90;;;;;;5040215;28;20028;-82
2021/12/21 11:30:13;;;;;;;12.35;6.13;;;2.40;99.90;;;;;;5041143;28;20089;-79
2021/12/21 11:32:44;;;;;;;8.07;5.75;;;2.50;99.90;;;;;;5048928;28;20021;-80
2021/12/21 11:37:36;;;;;;;9.75;5.78;;;2.50;99.90;;;;;;5039467;28;19905;-79
2021/12/21 11:40:05;;;;;;;8.70;5.85;;;2.40;99.90;;;;;;5039018;28;20025;-81
2021/12/21 11:42:37;;;;;;;6.28;4.97;;;2.60;99.90;;;;;;5041408;28;20083;-80
2021/12/21 11:45:14;;;;;;;11.55;5.95;;;2.70;99.90;;;;;;5052336;28;20028;-79
2021/12/21 11:47:50;;;;;;;9.43;6.03;;;2.70;99.90;;;;;;5060532;28;20033;-80
2021/12/21 11:50:16;;;;;;;13.35;6.25;;;2.90;99.90;;;;;;5057355;28;20032;-80
2021/12/21 11:52:48;;;;;;;9.93;6.30;;;2.80;99.90;;;;;;5064231;28;20013;-80
2021/12/21 11:55:14;;;;;;;14.80;7.10;;;2.90;99.90;;;;;;5058438;28;20093;-81
2021/12/21 11:57:53;;;;;;;13.90;6.63;;;2.90;99.90;;;;;;5058743;28;20025;-79
2021/12/21 12:00:21;;;;;;;7.43;5.60;;;2.80;99.90;;;;;;5058087;28;20037;-79
2021/12/21 12:02:49;;;;;;;13.25;5.65;;;2.90;99.90;;;;;;5059460;28;20006;-80
2021/12/21 12:05:17;;;;;;;11.50;5.93;;;2.80;99.90;;;;;;5059715;28;20020;-79
2021/12/21 12:07:43;;;;;;;7.63;5.65;;;2.80;99.90;;;;;;5057690;28;20026;-81
2021/12/21 12:10:12;;;;;;;12.35;6.05;;;2.80;99.90;;;;;;5053795;28;20049;-80
2021/12/21 12:12:38;;;;;;;8.23;5.32;;;2.70;99.90;;;;;;5053713;28;20017;-80
2021/12/21 12:15:07;;;;;;;6.93;5.25;;;2.80;99.90;;;;;;5053850;28;20021;-80
2021/12/21 12:17:33;;;;;;;9.30;5.65;;;3.00;99.90;;;;;;5056389;28;20031;-79
2021/12/21 12:20:05;;;;;;;8.65;5.85;;;3.00;99.90;;;;;;5056378;28;20025;-80
2021/12/21 12:22:44;;;;;;;8.70;5.32;;;3.00;99.90;;;;;;5056563;28;20026;-80
2021/12/21 12:25:23;;;;;;;6.47;4.88;;;3.20;99.90;;;;;;5058208;28;20081;-79
2021/12/21 12:27:51;;;;;;;5.30;4.40;;;3.20;99.90;;;;;;5058527;28;19998;-80
2021/12/21 12:30:23;;;;;;;7.60;5.43;;;3.20;99.90;;;;;;5056471;28;20029;-79
2021/12/21 12:33:00;;;;;;;9.85;5.90;;;3.10;99.90;;;;;;5056039;28;20019;-79
2021/12/21 12:35:37;;;;;;;8.07;6.20;;;3.00;99.90;;;;;;5055989;28;20105;-79
2021/12/21 12:38:04;;;;;;;7.68;4.65;;;3.00;99.90;;;;;;5055740;28;20010;-79
2021/12/21 12:40:41;;;;;;;7.75;5.78;;;3.00;99.90;;;;;;5055109;28;20049;-78
2021/12/21 12:43:09;;;;;;;13.85;6.40;;;3.10;99.90;;;;;;5047350;28;20025;-78
2021/12/21 12:45:37;;;;;;;7.72;5.53;;;3.10;99.90;;;;;;5045187;28;20077;-79
2021/12/21 12:48:04;;;;;;;9.55;5.07;;;3.20;99.90;;;;;;5045700;28;20085;-81
2021/12/21 12:50:36;;;;;;;7.60;4.80;;;3.20;99.90;;;;;;5046500;28;20056;-80
2021/12/21 12:53:05;;;;;;;8.50;5.13;;;3.10;99.90;;;;;;5045035;28;20085;-80
2021/12/21 12:55:51;;;;;;;9.57;5.50;;;3.20;99.90;;;;;;5039788;28;20092;-80
2021/12/21 12:58:20;;;;;;;10.57;5.10;;;3.20;99.90;;;;;;5044913;28;20592;-79
2021/12/21 13:01:00;;;;;;;7.90;4.90;;;3.30;99.90;;;;;;5039223;28;20049;-78
2021/12/21 13:03:41;;;;;;;9.02;5.40;;;3.20;99.90;;;;;;5057681;28;20032;-79
2021/12/21 13:06:10;;;;;;;8.88;5.63;;;2.90;99.90;;;;;;5038615;28;20021;-79
2021/12/21 13:08:36;;;;;;;7.50;4.95;;;2.80;99.90;;;;;;5038892;28;20025;-80
2021/12/21 13:11:02;;;;;;;7.47;4.57;;;2.80;99.90;;;;;;5039535;28;20025;-80
2021/12/21 13:13:36;;;;;;;5.93;4.18;;;2.70;99.90;;;;;;5042576;28;20048;-79
2021/12/21 13:16:07;;;;;;;9.63;5.05;;;2.70;99.90;;;;;;5037236;28;20105;-79
2021/12/21 13:18:48;;;;;;;6.47;5.32;;;2.80;99.90;;;;;;5038172;28;20021;-79
2021/12/21 13:21:27;;;;;;;11.13;4.95;;;3.10;99.90;;;;;;5038981;28;20036;-78
2021/12/21 13:24:04;;;;;;;5.90;4.63;;;3.00;99.90;;;;;;5038421;28;20452;-79
2021/12/21 13:26:41;;;;;;;7.28;4.05;;;3.00;99.90;;;;;;5040534;28;20018;-80
2021/12/21 13:29:10;;;;;;;6.25;4.00;;;2.90;99.90;;;;;;5037794;28;20099;-79
2021/12/21 13:31:37;;;;;;;6.53;4.43;;;2.80;99.90;;;;;;5036882;28;20113;-79
2021/12/21 13:34:04;;;;;;;6.45;4.38;;;2.80;99.90;;;;;;5036388;28;20457;-80
2021/12/21 13:36:34;;;;;;;9.38;6.90;;;2.70;99.90;;;;;;5037613;28;20056;-78
2021/12/21 13:39:13;;;;;;;8.63;4.40;;;2.70;99.90;;;;;;5035803;28;20030;-79
2021/12/21 13:41:52;;;;;;;5.55;4.07;;;2.70;99.90;;;;;;5036823;28;20084;-79
2021/12/21 13:44:30;;;;;;;5.28;3.83;;;2.90;99.90;;;;;;5034588;28;20021;-79
2021/12/21 13:47:02;;;;;;;8.52;5.57;;;3.00;99.90;;;;;;5037072;28;20028;-80
2021/12/21 13:49:28;;;;;;;5.80;5.22;;;2.90;99.90;;;;;;5034861;28;20367;-80